Time;durP1;ratioP1;P1;durP2;ratioP2;P2;SDS_P1;SDS_P2;PMS_P1;PMS_P2;Temp;Humidity;BMP_temperature;BMP_pressure;BME280_temperature;BME280_humidity;BME280_pressure;Samples;Min_cycle;Max_cycle;Signal;HPM_P1;HPM_P2
2021/06/30 00:00:39;;;;;;;39.17;17.70;;;15.60;99.90;;;;;;5067886;28;20510;-74
2021/06/30 00:03:06;;;;;;;33.05;13.15;;;15.60;99.90;;;;;;5068811;28;20170;-72
2021/06/30 00:05:32;;;;;;;34.13;13.65;;;15.50;99.90;;;;;;5066674;28;20512;-74
2021/06/30 00:07:58;;;;;;;35.30;13.00;;;15.50;99.90;;;;;;5062017;28;20189;-75
2021/06/30 00:10:24;;;;;;;39.92;17.50;;;15.50;99.90;;;;;;5066192;28;20170;-75
2021/06/30 00:12:50;;;;;;;35.67;12.98;;;15.50;99.90;;;;;;5056420;28;20216;-73
2021/06/30 00:15:23;;;;;;;39.95;13.63;;;15.40;99.90;;;;;;5070462;28;20175;-73
2021/06/30 00:17:49;;;;;;;36.03;14.10;;;15.30;99.90;;;;;;5070887;28;20170;-73
2021/06/30 00:20:16;;;;;;;46.25;13.77;;;15.20;99.90;;;;;;5068206;28;20197;-75
2021/06/30 00:22:42;;;;;;;42.78;17.52;;;15.30;99.90;;;;;;5069687;28;20647;-75
2021/06/30 00:25:08;;;;;;;40.72;13.38;;;15.20;99.90;;;;;;5063735;28;20189;-75
2021/06/30 00:27:35;;;;;;;27.48;12.52;;;15.20;99.90;;;;;;5066619;28;20182;-73
2021/06/30 00:30:01;;;;;;;30.70;12.27;;;15.10;99.90;;;;;;5066960;28;20182;-73
2021/06/30 00:32:27;;;;;;;38.08;12.02;;;15.20;99.90;;;;;;5067853;28;20206;-74
2021/06/30 00:34:53;;;;;;;40.85;12.75;;;15.20;99.90;;;;;;5067613;28;20695;-73
2021/06/30 00:37:19;;;;;;;33.35;12.50;;;15.20;99.90;;;;;;5069650;28;20174;-71
2021/06/30 00:39:45;;;;;;;41.35;13.52;;;15.20;99.90;;;;;;5069370;28;20214;-73
2021/06/30 00:42:11;;;;;;;48.38;17.33;;;15.10;99.90;;;;;;5066352;28;20267;-73
2021/06/30 00:44:41;;;;;;;39.55;12.30;;;15.10;99.90;;;;;;5071675;28;20585;-73
2021/06/30 00:47:07;;;;;;;31.67;12.90;;;15.20;99.90;;;;;;5071448;28;20198;-72
2021/06/30 00:49:33;;;;;;;29.38;12.13;;;15.20;99.90;;;;;;5050684;28;20186;-73
2021/06/30 00:51:59;;;;;;;38.85;16.70;;;15.10;99.90;;;;;;5062482;28;20206;-73
2021/06/30 00:54:25;;;;;;;46.63;14.02;;;15.10;99.90;;;;;;5058274;28;20194;-73
2021/06/30 00:56:52;;;;;;;31.02;12.55;;;15.00;99.90;;;;;;5063483;28;20185;-73
2021/06/30 00:59:18;;;;;;;29.67;11.82;;;15.00;99.90;;;;;;5067880;28;20175;-74
2021/06/30 01:01:44;;;;;;;42.50;13.20;;;15.00;99.90;;;;;;5052906;28;20182;-72
2021/06/30 01:04:10;;;;;;;38.50;12.90;;;14.90;99.90;;;;;;5051666;28;20546;-75
2021/06/30 01:06:36;;;;;;;36.47;13.20;;;14.90;99.90;;;;;;5067025;28;20193;-73
2021/06/30 01:09:04;;;;;;;33.17;12.68;;;14.90;99.90;;;;;;5061109;28;20177;-74
2021/06/30 01:11:30;;;;;;;38.42;13.70;;;14.90;99.90;;;;;;5065330;28;20213;-74
2021/06/30 01:13:56;;;;;;;29.23;12.35;;;14.80;99.90;;;;;;5066054;28;20202;-73
2021/06/30 01:16:22;;;;;;;39.67;12.65;;;14.80;99.90;;;;;;5067981;28;20186;-74
2021/06/30 01:18:49;;;;;;;43.70;14.05;;;14.80;99.90;;;;;;5067048;28;20193;-74
2021/06/30 01:21:17;;;;;;;33.23;13.73;;;14.80;99.90;;;;;;5068801;28;20175;-74
2021/06/30 01:23:44;;;;;;;46.03;14.05;;;14.80;99.90;;;;;;5053271;28;20393;-74
2021/06/30 01:26:10;;;;;;;31.30;13.10;;;14.70;99.90;;;;;;5072411;28;20194;-73
2021/06/30 01:28:36;;;;;;;39.60;13.63;;;14.70;99.90;;;;;;5044563;28;20217;-72
2021/06/30 01:31:03;;;;;;;36.80;14.18;;;14.70;99.90;;;;;;5067310;28;20190;-73
2021/06/30 01:33:29;;;;;;;34.97;14.57;;;14.70;99.90;;;;;;5055005;28;20177;-73
2021/06/30 01:35:55;;;;;;;40.58;13.38;;;14.70;99.90;;;;;;5068227;28;20186;-73
2021/06/30 01:38:22;;;;;;;;;;;14.70;99.90;;;;;;5051251;28;20214;-73
2021/06/30 01:40:49;;;;;;;46.05;14.20;;;14.70;99.90;;;;;;5057525;28;25074;-74
2021/06/30 01:43:16;;;;;;;55.10;14.90;;;14.70;99.90;;;;;;5053677;28;20182;-73
2021/06/30 01:45:42;;;;;;;41.80;14.67;;;14.70;99.90;;;;;;5064202;28;20205;-73
2021/06/30 01:48:08;;;;;;;36.73;14.60;;;14.60;99.90;;;;;;5061223;28;20643;-74
2021/06/30 01:50:34;;;;;;;38.10;14.20;;;14.60;99.90;;;;;;5068770;28;20156;-73
2021/06/30 01:53:00;;;;;;;47.05;15.15;;;14.60;99.90;;;;;;5062110;28;19916;-73
2021/06/30 01:55:26;;;;;;;40.00;13.60;;;14.50;99.90;;;;;;5064866;28;20179;-73
2021/06/30 01:57:52;;;;;;;41.92;14.18;;;14.60;99.90;;;;;;5059200;28;20155;-72
2021/06/30 02:00:19;;;;;;;41.72;17.88;;;14.50;99.90;;;;;;5068998;28;20209;-72
2021/06/30 02:02:46;;;;;;;45.80;18.50;;;14.50;99.90;;;;;;5070425;28;20189;-73
2021/06/30 02:05:19;;;;;;;36.20;13.95;;;14.60;99.90;;;;;;5060106;28;20190;-73
2021/06/30 02:07:49;;;;;;;40.28;14.43;;;14.50;99.90;;;;;;5066745;28;20178;-74
2021/06/30 02:10:16;;;;;;;48.25;13.82;;;14.50;99.90;;;;;;5067335;28;20170;-73
2021/06/30 02:12:42;;;;;;;51.20;14.82;;;14.50;99.90;;;;;;5063760;28;20237;-73
2021/06/30 02:15:11;;;;;;;43.33;14.32;;;14.50;99.90;;;;;;5069765;28;20169;-73
2021/06/30 02:17:38;;;;;;;51.17;19.23;;;14.50;99.90;;;;;;5071319;28;20205;-74
2021/06/30 02:20:08;;;;;;;41.13;14.70;;;14.50;99.90;;;;;;5064306;28;20530;-73
2021/06/30 02:22:38;;;;;;;39.85;14.55;;;14.50;99.90;;;;;;5072039;28;20200;-73
2021/06/30 02:25:06;;;;;;;32.13;14.80;;;14.50;99.90;;;;;;5064994;28;20171;-73
2021/06/30 02:27:32;;;;;;;;;;;14.50;99.90;;;;;;5067469;28;20177;-72
2021/06/30 02:29:58;;;;;;;43.58;14.48;;;14.50;99.90;;;;;;5061727;28;19920;-73
2021/06/30 02:32:24;;;;;;;36.38;12.82;;;14.50;99.90;;;;;;5063855;28;20206;-73
2021/06/30 02:34:50;;;;;;;;;;;14.50;99.90;;;;;;5068194;28;20170;-73
2021/06/30 02:37:16;;;;;;;;;;;14.50;99.90;;;;;;5052141;28;19928;-73
2021/06/30 02:39:42;;;;;;;;;;;14.50;99.90;;;;;;5065438;28;19920;-73
2021/06/30 02:42:08;;;;;;;;;;;14.50;99.90;;;;;;5067786;28;19912;-74
2021/06/30 02:44:34;;;;;;;;;;;14.50;99.90;;;;;;5069127;28;19924;-73
2021/06/30 02:47:00;;;;;;;;;;;14.50;99.90;;;;;;5060822;28;20392;-73
2021/06/30 02:49:26;;;;;;;;;;;14.40;99.90;;;;;;5063883;28;19923;-72
2021/06/30 02:51:51;;;;;;;;;;;14.50;99.90;;;;;;5062353;28;19927;-71
2021/06/30 02:54:17;;;;;;;;;;;14.50;99.90;;;;;;5067185;28;20015;-71
2021/06/30 02:56:43;;;;;;;;;;;14.50;99.90;;;;;;5065395;28;19920;-72
2021/06/30 02:59:09;;;;;;;;;;;14.50;99.90;;;;;;5057253;28;19924;-74
2021/06/30 03:01:35;;;;;;;;;;;14.50;99.90;;;;;;5057224;28;19921;-71
2021/06/30 03:04:01;;;;;;;;;;;14.60;99.90;;;;;;5066140;28;19932;-73
2021/06/30 03:06:27;;;;;;;;;;;14.50;99.90;;;;;;5063910;28;19916;-72
2021/06/30 03:08:53;;;;;;;;;;;14.50;99.90;;;;;;5064420;28;20610;-73
2021/06/30 03:11:19;;;;;;;;;;;14.50;99.90;;;;;;5063491;28;19924;-74
2021/06/30 03:13:45;;;;;;;;;;;14.50;99.90;;;;;;5061908;28;19913;-73
2021/06/30 03:16:13;;;;;;;;;;;14.50;99.90;;;;;;5062435;28;19917;-72
2021/06/30 03:18:38;;;;;;;;;;;14.50;99.90;;;;;;5048588;28;19927;-74
2021/06/30 03:21:04;;;;;;;;;;;14.50;99.90;;;;;;5061694;28;19913;-73
2021/06/30 03:23:30;;;;;;;;;;;14.50;99.90;;;;;;5062559;28;19924;-73
2021/06/30 03:25:56;;;;;;;;;;;14.50;99.90;;;;;;5065686;28;19916;-73
2021/06/30 03:28:22;;;;;;;;;;;14.40;99.90;;;;;;5063125;28;19917;-74
2021/06/30 03:30:48;;;;;;;;;;;14.40;99.90;;;;;;5060304;28;20015;-71
2021/06/30 03:33:14;;;;;;;;;;;14.40;99.90;;;;;;5064245;28;19978;-73
2021/06/30 03:35:40;;;;;;;45.40;17.70;;;14.40;99.90;;;;;;5068724;28;19920;-74
2021/06/30 03:38:06;;;;;;;;;;;14.50;99.90;;;;;;5062442;28;20214;-73
2021/06/30 03:40:32;;;;;;;33.83;11.90;;;14.50;99.90;;;;;;5064802;28;20091;-73
2021/06/30 03:42:58;;;;;;;32.10;12.05;;;14.50;99.90;;;;;;5064157;28;20566;-73
2021/06/30 03:45:24;;;;;;;31.45;12.60;;;14.50;99.90;;;;;;5066871;28;20178;-73
2021/06/30 03:47:50;;;;;;;38.17;15.90;;;14.50;99.90;;;;;;5068722;28;20180;-73
2021/06/30 03:50:16;;;;;;;30.88;13.27;;;14.50;99.90;;;;;;5063134;28;20178;-72
2021/06/30 03:52:42;;;;;;;44.08;16.15;;;14.50;99.90;;;;;;5066703;28;20210;-73
2021/06/30 03:55:09;;;;;;;35.33;11.85;;;14.50;99.90;;;;;;5061532;28;20371;-73
2021/06/30 03:57:35;;;;;;;36.78;12.30;;;14.50;99.90;;;;;;5058806;28;20191;-72
2021/06/30 04:00:04;;;;;;;29.20;11.70;;;14.60;99.90;;;;;;5062501;28;20163;-72
2021/06/30 04:02:30;;;;;;;36.65;12.20;;;14.60;99.90;;;;;;5066990;28;20170;-73
2021/06/30 04:04:56;;;;;;;37.92;12.82;;;14.60;99.90;;;;;;5051836;28;20183;-73
2021/06/30 04:07:22;;;;;;;29.90;12.10;;;14.60;99.90;;;;;;5063138;28;20177;-74
2021/06/30 04:09:48;;;;;;;40.53;13.15;;;14.60;99.90;;;;;;5064493;28;20546;-73
2021/06/30 04:12:14;;;;;;;31.10;12.23;;;14.70;99.90;;;;;;5067006;28;20218;-73
2021/06/30 04:14:40;;;;;;;32.10;14.98;;;14.60;99.90;;;;;;5068240;28;20174;-73
2021/06/30 04:17:07;;;;;;;35.42;11.90;;;14.70;99.90;;;;;;5053455;28;20171;-73
2021/06/30 04:19:33;;;;;;;38.72;13.57;;;14.70;99.90;;;;;;5058933;28;20184;-75
2021/06/30 04:21:59;;;;;;;34.17;12.73;;;14.70;99.90;;;;;;5055645;28;20178;-73
2021/06/30 04:24:25;;;;;;;32.10;14.68;;;14.70;99.90;;;;;;5069000;28;20170;-73
2021/06/30 04:26:51;;;;;;;32.53;11.52;;;14.70;99.90;;;;;;5065036;28;20169;-73
2021/06/30 04:29:17;;;;;;;30.90;12.90;;;14.80;99.90;;;;;;5066086;28;20183;-73
2021/06/30 04:31:43;;;;;;;27.10;12.00;;;14.80;99.90;;;;;;5064729;28;20212;-70
2021/06/30 04:34:09;;;;;;;26.50;12.10;;;14.80;99.90;;;;;;5066176;28;20183;-70
2021/06/30 04:36:35;;;;;;;41.55;13.70;;;14.80;99.90;;;;;;5065663;28;20404;-73
2021/06/30 04:39:02;;;;;;;32.80;12.10;;;14.90;99.90;;;;;;5068021;28;20237;-73
2021/06/30 04:41:28;;;;;;;32.30;12.30;;;14.90;99.90;;;;;;5073246;28;20182;-71
2021/06/30 04:43:54;;;;;;;31.17;12.33;;;15.00;99.90;;;;;;5072465;28;20180;-72
2021/06/30 04:46:21;;;;;;;29.60;12.83;;;15.00;99.90;;;;;;5072182;28;20271;-72
2021/06/30 04:48:47;;;;;;;34.28;12.82;;;15.00;99.90;;;;;;5062796;28;20182;-72
2021/06/30 04:51:13;;;;;;;31.02;11.45;;;15.10;99.90;;;;;;5063088;28;20177;-73
2021/06/30 04:53:39;;;;;;;32.35;12.95;;;15.10;99.90;;;;;;5059474;28;20647;-71
2021/06/30 04:56:05;;;;;;;27.65;12.10;;;15.10;99.90;;;;;;5062468;28;20198;-70
2021/06/30 04:58:31;;;;;;;;;;;15.10;99.90;;;;;;5069839;28;20550;-73
2021/06/30 05:00:57;;;;;;;;;;;15.10;99.90;;;;;;5069637;28;19912;-71
2021/06/30 05:03:27;;;;;;;;;;;15.10;99.90;;;;;;5067220;28;20180;-72
2021/06/30 05:05:56;;;;;;;35.60;12.05;;;15.10;99.90;;;;;;5063044;28;19939;-72
2021/06/30 05:08:22;;;;;;;26.50;10.90;;;15.10;99.90;;;;;;5058264;28;20191;-73
2021/06/30 05:10:49;;;;;;;;;;;15.10;99.90;;;;;;5069653;28;20404;-73
2021/06/30 05:13:15;;;;;;;;;;;15.10;99.90;;;;;;5063915;28;19920;-71
2021/06/30 05:15:41;;;;;;;;;;;15.20;99.90;;;;;;5056008;28;19919;-71
2021/06/30 05:18:07;;;;;;;;;;;15.20;99.90;;;;;;5068070;28;20290;-73
2021/06/30 05:20:33;;;;;;;;;;;15.20;99.90;;;;;;5067996;28;19913;-72
2021/06/30 05:22:59;;;;;;;;;;;15.20;99.90;;;;;;5069526;28;19912;-73
2021/06/30 05:25:25;;;;;;;;;;;15.20;99.90;;;;;;5059849;28;19916;-73
2021/06/30 05:27:51;;;;;;;;;;;15.20;99.90;;;;;;5055236;28;19908;-73
2021/06/30 05:30:17;;;;;;;;;;;15.30;99.90;;;;;;5060396;28;20281;-73
2021/06/30 05:32:43;;;;;;;;;;;15.30;99.90;;;;;;5068640;28;19916;-73
2021/06/30 05:35:09;;;;;;;;;;;15.30;99.90;;;;;;5067632;28;19917;-74
2021/06/30 05:37:35;;;;;;;;;;;15.40;99.90;;;;;;5068297;28;19909;-71
2021/06/30 05:40:01;;;;;;;;;;;15.40;99.90;;;;;;5069073;28;20411;-73
2021/06/30 05:42:27;;;;;;;;;;;15.40;99.90;;;;;;5065977;28;20305;-73
2021/06/30 05:44:53;;;;;;;;;;;15.40;99.90;;;;;;5064394;28;19908;-73
2021/06/30 05:47:19;;;;;;;30.87;12.33;;;15.50;99.90;;;;;;5067631;28;19916;-74
2021/06/30 05:49:46;;;;;;;33.97;12.00;;;15.60;99.90;;;;;;5064702;28;20178;-73
2021/06/30 05:52:12;;;;;;;29.40;11.70;;;15.70;99.90;;;;;;5065386;28;20662;-73
2021/06/30 05:54:38;;;;;;;23.58;10.40;;;15.80;99.90;;;;;;5060219;28;20396;-72
2021/06/30 05:57:04;;;;;;;28.10;11.50;;;15.90;99.90;;;;;;5066785;28;20183;-72
2021/06/30 05:59:30;;;;;;;25.98;11.70;;;15.80;99.90;;;;;;5053830;28;20187;-70
2021/06/30 06:01:56;;;;;;;;;;;15.80;99.90;;;;;;5067338;28;20170;-73
2021/06/30 06:04:22;;;;;;;;;;;15.90;99.90;;;;;;5069325;28;20396;-74
2021/06/30 06:06:48;;;;;;;;;;;15.90;99.90;;;;;;5070348;28;19919;-72
2021/06/30 06:09:14;;;;;;;;;;;16.00;99.90;;;;;;5068355;28;19916;-73
2021/06/30 06:11:40;;;;;;;;;;;16.10;99.90;;;;;;5055425;28;19919;-73
2021/06/30 06:14:06;;;;;;;;;;;16.20;99.90;;;;;;5064876;28;20296;-72
2021/06/30 06:16:32;;;;;;;28.30;10.50;;;16.30;99.90;;;;;;5062539;28;19908;-73
2021/06/30 06:18:58;;;;;;;26.25;10.20;;;16.40;99.90;;;;;;5058206;28;20187;-73
2021/06/30 06:21:24;;;;;;;24.65;10.43;;;16.50;99.90;;;;;;5068096;28;20193;-73
2021/06/30 06:23:50;;;;;;;21.15;9.95;;;16.60;99.90;;;;;;5062524;28;20204;-74
2021/06/30 06:26:16;;;;;;;18.67;9.68;;;16.60;99.90;;;;;;5066485;28;20174;-72
2021/06/30 06:28:43;;;;;;;21.58;8.82;;;16.70;99.90;;;;;;5069227;28;20187;-74
2021/06/30 06:31:14;;;;;;;18.40;8.70;;;16.80;99.90;;;;;;5065825;28;20185;-73
2021/06/30 06:33:40;;;;;;;15.90;8.32;;;16.90;99.90;;;;;;5060771;28;20223;-72
2021/06/30 06:36:07;;;;;;;21.98;9.45;;;17.10;99.90;;;;;;5065371;28;20899;-73
2021/06/30 06:38:33;;;;;;;19.90;8.80;;;17.10;99.90;;;;;;5054392;28;20209;-76
2021/06/30 06:40:59;;;;;;;17.17;9.05;;;17.20;99.90;;;;;;5070482;28;20656;-74
2021/06/30 06:43:25;;;;;;;22.20;9.57;;;17.30;99.90;;;;;;5067011;28;20182;-74
2021/06/30 06:45:51;;;;;;;18.55;9.45;;;17.40;99.90;;;;;;5062411;28;20537;-74
2021/06/30 06:48:18;;;;;;;21.95;9.27;;;17.50;99.90;;;;;;5064982;28;20193;-73
2021/06/30 06:50:44;;;;;;;35.67;10.05;;;17.70;99.90;;;;;;5070556;28;20177;-72
2021/06/30 06:53:10;;;;;;;23.05;9.13;;;17.80;99.90;;;;;;5070673;28;20583;-73
2021/06/30 06:55:36;;;;;;;19.20;8.45;;;18.00;99.90;;;;;;5071867;28;20178;-74
2021/06/30 06:58:02;;;;;;;19.52;8.80;;;18.20;99.90;;;;;;5057696;28;20557;-72
2021/06/30 07:00:28;;;;;;;19.45;9.45;;;18.30;99.90;;;;;;5069408;28;20658;-69
2021/06/30 07:02:54;;;;;;;20.40;8.68;;;18.20;99.90;;;;;;5072133;28;20181;-75
2021/06/30 07:05:20;;;;;;;19.05;9.60;;;18.20;99.90;;;;;;5071565;28;20623;-74
2021/06/30 07:07:46;;;;;;;20.15;9.35;;;18.30;99.90;;;;;;5071646;28;20182;-76
2021/06/30 07:10:12;;;;;;;20.27;8.95;;;18.30;99.90;;;;;;5072052;28;20482;-74
2021/06/30 07:12:39;;;;;;;20.48;8.45;;;18.60;99.90;;;;;;5071027;28;20210;-72
2021/06/30 07:15:06;;;;;;;19.80;8.40;;;18.80;99.90;;;;;;5071955;28;20177;-74
2021/06/30 07:17:35;;;;;;;18.08;8.40;;;18.90;99.90;;;;;;5068702;28;20181;-75
2021/06/30 07:20:05;;;;;;;16.08;8.10;;;18.90;99.90;;;;;;5053832;28;20182;-75
2021/06/30 07:22:31;;;;;;;18.20;8.02;;;19.00;99.90;;;;;;5072624;28;20185;-73
2021/06/30 07:24:57;;;;;;;22.45;8.48;;;19.10;99.90;;;;;;5073201;28;20170;-75
2021/06/30 07:27:23;;;;;;;16.35;8.05;;;19.10;99.90;;;;;;5066969;28;20190;-74
2021/06/30 07:29:49;;;;;;;19.88;8.00;;;19.20;99.90;;;;;;5070603;28;20174;-75
2021/06/30 07:32:16;;;;;;;21.88;7.55;;;19.40;99.90;;;;;;5071122;28;20570;-77
2021/06/30 07:34:42;;;;;;;20.60;8.40;;;19.40;99.90;;;;;;5070389;28;20182;-76
2021/06/30 07:37:08;;;;;;;15.15;8.05;;;19.40;99.90;;;;;;5064131;28;20207;-76
2021/06/30 07:39:35;;;;;;;17.87;7.90;;;19.50;99.90;;;;;;5071736;28;20218;-79
2021/06/30 07:42:01;;;;;;;18.55;7.90;;;19.60;99.90;;;;;;5070375;28;20170;-78
2021/06/30 07:44:27;;;;;;;13.75;7.55;;;19.60;99.90;;;;;;5072147;28;20178;-77
2021/06/30 07:46:54;;;;;;;14.07;7.55;;;19.60;99.90;;;;;;5071869;28;20189;-75
2021/06/30 07:49:20;;;;;;;11.93;7.43;;;19.70;99.90;;;;;;5070997;28;20186;-73
2021/06/30 07:51:46;;;;;;;14.10;7.75;;;19.70;99.90;;;;;;5071941;28;20190;-74
2021/06/30 07:54:12;;;;;;;21.55;8.27;;;19.70;99.90;;;;;;5071308;28;20202;-74
2021/06/30 07:56:38;;;;;;;15.30;7.72;;;19.80;99.90;;;;;;5071039;28;20197;-75
2021/06/30 07:59:08;;;;;;;12.32;7.28;;;19.90;99.90;;;;;;5073828;28;20642;-75
2021/06/30 08:01:34;;;;;;;18.77;7.63;;;20.10;99.90;;;;;;5074503;28;20186;-74
2021/06/30 08:04:00;;;;;;;13.77;7.53;;;20.30;99.90;;;;;;5074776;28;20271;-73
2021/06/30 08:06:27;;;;;;;14.32;7.25;;;20.20;99.90;;;;;;5074897;28;20659;-72
2021/06/30 08:08:53;;;;;;;14.85;7.50;;;20.30;99.90;;;;;;5075239;28;20182;-74
2021/06/30 08:11:23;;;;;;;11.80;6.95;;;20.40;99.90;;;;;;5074343;28;20174;-72
2021/06/30 08:13:50;;;;;;;26.67;7.45;;;20.40;99.90;;;;;;5073578;28;20608;-73
2021/06/30 08:16:16;;;;;;;15.40;7.20;;;20.30;99.90;;;;;;5055442;28;20181;-75
2021/06/30 08:18:42;;;;;;;13.27;7.50;;;20.30;99.90;;;;;;5074965;28;20181;-76
2021/06/30 08:21:09;;;;;;;13.27;7.93;;;20.30;99.90;;;;;;5073719;28;20174;-73
2021/06/30 08:23:35;;;;;;;15.82;8.20;;;20.40;99.90;;;;;;5074744;28;20264;-76
2021/06/30 08:26:01;;;;;;;14.57;7.13;;;20.40;99.90;;;;;;5074875;28;20172;-77
2021/06/30 08:28:27;;;;;;;12.23;7.65;;;20.50;99.90;;;;;;5072834;28;20174;-69
2021/06/30 08:30:54;;;;;;;13.15;7.00;;;20.50;99.90;;;;;;5067747;28;20185;-72
2021/06/30 08:33:20;;;;;;;12.85;7.07;;;20.80;99.90;;;;;;5071101;28;20213;-72
2021/06/30 08:35:46;;;;;;;12.52;6.60;;;21.20;99.90;;;;;;5071436;28;20178;-73
2021/06/30 08:38:12;;;;;;;10.48;6.60;;;21.50;99.80;;;;;;5074010;28;20654;-77
2021/06/30 08:40:38;;;;;;;14.68;6.80;;;21.90;99.10;;;;;;5068391;28;20197;-74
2021/06/30 08:43:05;;;;;;;15.05;6.18;;;22.50;98.50;;;;;;5072909;28;20544;-75
2021/06/30 08:45:31;;;;;;;13.73;6.20;;;22.90;96.70;;;;;;5072731;28;20172;-75
2021/06/30 08:47:58;;;;;;;10.68;7.18;;;23.20;95.90;;;;;;5055503;28;20543;-74
2021/06/30 08:50:24;;;;;;;18.42;7.07;;;23.10;95.40;;;;;;5055013;28;20181;-76
2021/06/30 08:52:51;;;;;;;11.05;6.57;;;23.20;94.90;;;;;;5073511;28;20209;-68
2021/06/30 08:55:17;;;;;;;13.32;6.57;;;23.20;94.50;;;;;;5056002;28;20170;-70
2021/06/30 08:57:44;;;;;;;14.82;6.72;;;23.50;94.40;;;;;;5067045;28;20178;-74
2021/06/30 09:00:11;;;;;;;10.32;6.10;;;23.80;93.80;;;;;;5062140;28;20181;-77
2021/06/30 09:02:37;;;;;;;9.95;6.20;;;24.20;92.40;;;;;;5074309;28;20188;-74
2021/06/30 09:07:53;;;;;;;9.65;5.80;;;25.00;91.40;;;;;;5078348;28;19916;-78
2021/06/30 09:10:31;;;;;;;11.50;5.38;;;24.90;90.70;;;;;;5071436;28;20173;-75
2021/06/30 09:12:57;;;;;;;8.90;5.78;;;24.90;89.60;;;;;;5067565;28;20573;-74
2021/06/30 09:15:34;;;;;;;14.85;6.00;;;25.30;88.50;;;;;;5069219;28;20174;-77
2021/06/30 09:18:26;;;;;;;15.27;5.55;;;26.20;87.70;;;;;;5069134;28;20205;-75
2021/06/30 09:21:17;;;;;;;9.40;5.07;;;26.30;84.20;;;;;;5066192;28;20189;-78
2021/06/30 09:24:05;;;;;;;9.38;5.10;;;27.20;81.60;;;;;;5065418;28;20387;-76
2021/06/30 09:26:56;;;;;;;19.13;5.03;;;27.60;77.00;;;;;;5059666;28;20171;-74
2021/06/30 09:29:23;;;;;;;7.80;5.25;;;28.50;77.50;;;;;;5060191;28;20167;-74
2021/06/30 09:31:51;;;;;;;7.93;4.80;;;28.20;71.60;;;;;;5058628;28;20643;-74
2021/06/30 09:34:35;;;;;;;7.30;5.10;;;28.60;72.20;;;;;;5073245;28;20316;-76
2021/06/30 09:37:02;;;;;;;75.15;7.85;;;28.70;67.90;;;;;;5065683;28;20392;-76
2021/06/30 09:39:29;;;;;;;9.15;5.07;;;28.80;68.20;;;;;;5053948;28;20229;-73
2021/06/30 09:42:07;;;;;;;9.20;4.97;;;29.00;66.20;;;;;;5060774;28;20190;-77
2021/06/30 09:44:33;;;;;;;7.03;4.80;;;28.90;66.00;;;;;;5070351;28;20166;-62
2021/06/30 09:46:59;;;;;;;8.98;4.97;;;28.70;66.40;;;;;;5073944;28;20181;-65
2021/06/30 09:49:26;;;;;;;78.07;11.32;;;29.00;65.50;;;;;;5073355;28;20170;-59
2021/06/30 09:52:08;;;;;;;12.45;5.60;;;28.90;64.40;;;;;;5054386;28;20186;-76
2021/06/30 09:54:36;;;;;;;9.77;5.13;;;28.40;65.50;;;;;;5065276;28;20240;-74
2021/06/30 09:57:06;;;;;;;7.25;4.50;;;28.10;65.30;;;;;;5072299;28;20178;-74
2021/06/30 09:59:37;;;;;;;10.15;4.82;;;28.20;64.00;;;;;;5061279;28;20182;-75
2021/06/30 10:02:07;;;;;;;13.70;5.10;;;28.00;63.40;;;;;;5073097;28;20121;-74
2021/06/30 10:04:35;;;;;;;10.75;4.75;;;27.80;65.00;;;;;;5072203;28;20394;-73
2021/06/30 10:07:10;;;;;;;9.57;5.37;;;28.20;64.00;;;;;;5072075;28;20879;-75
2021/06/30 10:09:37;;;;;;;15.95;5.57;;;28.50;61.10;;;;;;5069691;28;20881;-78
2021/06/30 10:12:11;;;;;;;8.85;5.55;;;28.90;61.30;;;;;;5063232;28;20387;-75
2021/06/30 10:14:41;;;;;;;11.30;5.23;;;29.00;60.60;;;;;;5040849;28;20772;-77
2021/06/30 10:17:08;;;;;;;18.00;5.80;;;29.20;60.40;;;;;;5048509;28;20370;-74
2021/06/30 10:19:39;;;;;;;6.78;4.68;;;29.30;59.00;;;;;;5050773;28;20186;-77
2021/06/30 10:22:05;;;;;;;;;;;29.00;59.50;;;;;;5058637;28;20031;-76
2021/06/30 10:24:31;;;;;;;6.38;4.35;;;28.60;59.70;;;;;;5052049;28;20688;-76
2021/06/30 10:26:58;;;;;;;;;;;27.50;62.90;;;;;;5062752;28;20377;-74
2021/06/30 10:29:30;;;;;;;;;;;27.10;66.00;;;;;;5050608;28;19915;-75
2021/06/30 10:31:57;;;;;;;;;;;26.80;66.20;;;;;;5063916;28;19908;-75
2021/06/30 10:34:32;;;;;;;;;;;25.90;69.00;;;;;;5058870;28;19920;-73
2021/06/30 10:36:58;;;;;;;22.52;5.68;;;25.80;69.50;;;;;;5071386;28;20422;-74
2021/06/30 10:39:36;;;;;;;145.98;19.73;;;25.10;71.40;;;;;;5072176;28;20222;-74
2021/06/30 10:42:34;;;;;;;66.60;12.55;;;25.30;73.50;;;;;;5066632;28;20236;-76
2021/06/30 10:45:17;;;;;;;8.10;5.60;;;25.60;72.50;;;;;;5069961;28;20514;-74
2021/06/30 10:47:55;;;;;;;11.70;5.97;;;25.40;72.00;;;;;;5067933;28;20535;-72
2021/06/30 10:50:44;;;;;;;10.00;4.82;;;25.90;70.90;;;;;;5069522;28;20166;-75
2021/06/30 10:53:11;;;;;;;11.27;5.00;;;25.90;69.60;;;;;;5052725;28;20235;-72
2021/06/30 10:58:16;;;;;;;40.65;5.43;;;26.70;67.10;;;;;;5071781;28;20638;-73
2021/06/30 11:01:04;;;;;;;8.82;4.72;;;27.20;66.80;;;;;;5069383;28;20196;-75
2021/06/30 11:03:42;;;;;;;13.65;5.40;;;27.00;64.90;;;;;;5069639;28;20174;-72
2021/06/30 11:06:21;;;;;;;6.90;4.40;;;26.50;66.70;;;;;;5069733;28;20162;-73
2021/06/30 11:09:05;;;;;;;6.72;4.88;;;26.20;67.40;;;;;;5071731;28;20364;-74
2021/06/30 11:11:34;;;;;;;10.18;5.38;;;25.60;67.70;;;;;;5071282;28;20169;-77
2021/06/30 11:14:04;;;;;;;9.50;5.32;;;24.90;69.50;;;;;;5072013;28;20206;-73
2021/06/30 11:16:48;;;;;;;16.10;5.75;;;24.70;71.90;;;;;;5065361;28;20172;-72
2021/06/30 11:19:15;;;;;;;12.05;5.38;;;25.50;70.70;;;;;;5072267;28;20166;-75
2021/06/30 11:21:53;;;;;;;11.25;4.95;;;25.80;68.30;;;;;;5071758;28;20201;-74
2021/06/30 11:24:44;;;;;;;7.82;5.25;;;26.20;67.50;;;;;;5071984;28;20181;-73
2021/06/30 11:27:24;;;;;;;109.75;13.45;;;25.90;67.50;;;;;;5071863;28;20161;-72
2021/06/30 11:29:57;;;;;;;90.50;14.85;;;26.20;69.20;;;;;;5071861;28;20181;-74
2021/06/30 11:32:36;;;;;;;8.38;4.90;;;26.90;66.60;;;;;;5072022;28;20158;-74
2021/06/30 11:35:13;;;;;;;151.05;17.20;;;27.10;65.30;;;;;;5076448;28;20220;-74
2021/06/30 11:37:40;;;;;;;12.93;5.22;;;27.20;66.30;;;;;;5075861;28;20168;-73
2021/06/30 11:40:13;;;;;;;18.02;5.30;;;27.50;64.30;;;;;;5076149;28;20213;-76
2021/06/30 11:42:42;;;;;;;17.38;5.38;;;26.90;63.50;;;;;;5075059;28;20169;-75
2021/06/30 11:45:32;;;;;;;13.50;5.30;;;26.10;64.90;;;;;;5074499;28;20188;-77
2021/06/30 11:48:00;;;;;;;101.85;13.82;;;26.00;64.60;;;;;;5075973;28;20172;-73
2021/06/30 11:50:30;;;;;;;109.38;10.60;;;25.60;66.70;;;;;;5075739;28;20525;-72
2021/06/30 11:52:58;;;;;;;11.52;5.10;;;25.90;65.30;;;;;;5075692;28;20177;-73
2021/06/30 11:55:33;;;;;;;16.88;6.88;;;25.80;64.90;;;;;;5074655;28;20177;-73
2021/06/30 11:58:01;;;;;;;10.02;5.15;;;25.70;65.60;;;;;;5072608;28;20633;-72
2021/06/30 12:00:29;;;;;;;10.73;5.10;;;25.40;67.40;;;;;;5075346;28;20184;-73
2021/06/30 12:03:02;;;;;;;8.57;5.35;;;25.50;67.30;;;;;;5073630;28;20186;-72
2021/06/30 12:05:29;;;;;;;9.77;5.07;;;25.00;67.70;;;;;;5074066;28;20186;-72
2021/06/30 12:07:56;;;;;;;11.55;5.10;;;24.90;69.50;;;;;;5075885;28;20193;-72
2021/06/30 12:10:29;;;;;;;13.10;6.15;;;25.30;68.10;;;;;;5056768;28;20186;-74
2021/06/30 12:12:55;;;;;;;12.35;5.90;;;25.20;66.90;;;;;;5074077;28;20650;-70
2021/06/30 12:15:21;;;;;;;11.00;5.45;;;24.80;69.40;;;;;;5073793;28;20190;-73
2021/06/30 12:17:49;;;;;;;18.58;5.68;;;24.70;69.40;;;;;;5074099;28;20182;-72
2021/06/30 12:20:19;;;;;;;;;;;24.50;69.70;;;;;;5075221;28;20174;-72
2021/06/30 12:22:45;;;;;;;;;;;24.10;71.80;;;;;;5048297;28;19916;-75
2021/06/30 12:25:12;;;;;;;;;;;24.20;72.00;;;;;;5070007;28;19912;-73
2021/06/30 12:27:44;;;;;;;21.85;5.95;;;24.20;72.00;;;;;;5074506;28;20387;-70
2021/06/30 12:30:14;;;;;;;;;;;24.10;72.80;;;;;;5052676;28;20402;-70
2021/06/30 12:32:56;;;;;;;17.77;6.53;;;24.40;71.50;;;;;;5073779;28;20731;-72
2021/06/30 12:35:35;;;;;;;10.10;5.50;;;24.70;70.60;;;;;;5070756;28;20409;-71
2021/06/30 12:38:17;;;;;;;13.52;6.55;;;24.50;70.40;;;;;;5073366;28;20404;-68
2021/06/30 12:40:43;;;;;;;13.60;6.18;;;24.30;71.20;;;;;;5072418;28;20455;-73
2021/06/30 12:43:16;;;;;;;10.98;5.95;;;24.30;71.50;;;;;;5072346;28;20393;-75
2021/06/30 12:45:50;;;;;;;16.88;7.13;;;23.90;72.20;;;;;;5072908;28;20394;-71
2021/06/30 12:48:18;;;;;;;16.23;6.10;;;23.70;73.50;;;;;;5072139;28;20747;-73
2021/06/30 12:50:48;;;;;;;23.63;6.28;;;23.50;74.00;;;;;;5066222;28;20382;-75
2021/06/30 12:53:28;;;;;;;9.88;6.00;;;23.30;74.70;;;;;;5071954;28;20397;-73
2021/06/30 12:56:13;;;;;;;17.45;6.47;;;23.40;74.30;;;;;;5074531;28;20194;-72
2021/06/30 12:58:47;;;;;;;11.18;5.65;;;23.30;75.10;;;;;;5074152;28;20158;-72
2021/06/30 13:01:14;;;;;;;29.55;6.28;;;23.00;74.90;;;;;;5074594;28;20175;-72